Time;durP1;ratioP1;P1;durP2;ratioP2;P2;SDS_P1;SDS_P2;PMS_P1;PMS_P2;Temp;Humidity;BMP_temperature;BMP_pressure;BME280_temperature;BME280_humidity;BME280_pressure;Samples;Min_cycle;Max_cycle;Signal;HPM_P1;HPM_P2
2022/06/10 00:00:41;;;;;;;9.60;5.30;;;;;;;21.54;87.40;99982.38;4997257;28;20037;-88
2022/06/10 00:03:07;;;;;;;9.52;4.80;;;;;;;21.54;87.60;99979.66;5015141;28;20080;-88
2022/06/10 00:05:36;;;;;;;11.93;5.50;;;;;;;21.54;87.66;99979.66;4997080;28;20117;-88
2022/06/10 00:08:07;;;;;;;7.35;4.82;;;;;;;21.64;87.44;99984.69;5014856;28;20096;-87
2022/06/10 00:10:33;;;;;;;6.55;5.68;;;;;;;21.47;87.41;99964.25;4997084;28;20048;-87
2022/06/10 00:12:58;;;;;;;8.50;4.30;;;;;;;21.60;87.80;99976.06;5014780;28;20030;-87
2022/06/10 00:15:24;;;;;;;5.35;4.80;;;;;;;21.63;87.96;99978.38;4995687;28;20084;-87
2022/06/10 00:17:50;;;;;;;8.40;4.63;;;;;;;21.61;88.01;99979.66;4996765;28;20494;-88
2022/06/10 00:20:21;;;;;;;9.43;4.35;;;;;;;21.57;87.95;99973.75;4996556;28;20036;-87
2022/06/10 00:22:47;;;;;;;7.00;4.57;;;;;;;21.58;87.47;99956.28;5014280;28;20073;-88
2022/06/10 00:25:13;;;;;;;4.28;3.88;;;;;;;21.67;87.43;99973.31;5014531;28;20097;-88
2022/06/10 00:27:39;;;;;;;8.38;4.28;;;;;;;21.64;87.75;99977.31;5014515;28;20025;-87
2022/06/10 00:30:07;;;;;;;6.90;4.45;;;;;;;21.57;87.83;99962.81;5014212;28;20026;-88
2022/06/10 00:32:34;;;;;;;5.95;4.30;;;;;;;21.56;87.95;99972.06;5014418;28;20022;-88
2022/06/10 00:34:59;;;;;;;6.43;4.40;;;;;;;21.66;87.53;99971.63;5014154;28;20064;-88
2022/06/10 00:37:25;;;;;;;13.73;4.72;;;;;;;21.67;87.91;99968.69;5014487;28;20046;-88
2022/06/10 00:39:50;;;;;;;8.38;5.05;;;;;;;21.64;87.94;99963.63;5015580;28;20487;-87
2022/06/10 00:42:16;;;;;;;8.77;4.40;;;;;;;21.58;88.17;99963.66;5014035;28;20026;-86
2022/06/10 00:44:45;;;;;;;5.20;4.43;;;;;;;21.74;88.14;99979.63;5014217;28;20101;-87
2022/06/10 00:47:22;;;;;;;8.57;5.10;;;;;;;21.72;87.78;99970.78;5013806;28;20030;-86
2022/06/10 00:49:54;;;;;;;7.05;4.93;;;;;;;21.75;87.80;99974.97;5013720;28;20030;-86
2022/06/10 00:52:28;;;;;;;7.15;4.95;;;;;;;21.68;88.04;99970.34;5013455;28;20500;-86
2022/06/10 00:54:55;;;;;;;8.18;5.22;;;;;;;21.60;88.03;99967.84;5013557;28;20041;-87
2022/06/10 00:57:31;;;;;;;7.45;4.60;;;;;;;21.64;88.51;99984.69;5013369;28;20026;-86
2022/06/10 01:00:07;;;;;;;9.13;4.75;;;;;;;21.69;88.66;99977.53;5013407;28;20080;-86
2022/06/10 01:02:35;;;;;;;19.17;5.55;;;;;;;21.61;88.45;99964.06;4995992;28;20022;-86
2022/06/10 01:05:04;;;;;;;6.97;4.32;;;;;;;21.59;88.49;99968.03;5013483;28;20022;-87
2022/06/10 01:07:35;;;;;;;5.93;4.40;;;;;;;21.62;88.83;99965.72;4995721;28;20100;-87
2022/06/10 01:10:04;;;;;;;10.48;5.03;;;;;;;21.68;88.48;99970.34;5013573;28;20080;-87
2022/06/10 01:13:03;;;;;;;7.97;4.75;;;;;;;21.77;88.50;99972.88;5013432;28;20022;-87
2022/06/10 01:15:50;;;;;;;7.60;5.43;;;;;;;21.71;88.69;99969.94;4995744;28;20403;-88
2022/06/10 01:18:28;;;;;;;10.32;5.18;;;;;;;21.66;88.76;99969.72;5012316;28;20113;-88
2022/06/10 01:21:40;;;;;;;10.05;4.82;;;;;;;21.68;88.79;99975.81;4995592;28;20403;-87
2022/06/10 01:24:06;;;;;;;14.38;5.40;;;;;;;21.68;88.99;99975.81;4995625;28;20048;-88
2022/06/10 01:30:13;;;;;;;9.88;4.78;;;;;;;21.66;88.81;99983.41;5013711;28;20048;-88
2022/06/10 01:32:54;;;;;;;10.10;5.47;;;;;;;21.68;88.81;99973.09;4995539;28;20030;-88
2022/06/10 01:35:40;;;;;;;7.15;4.90;;;;;;;21.58;89.19;99972.69;4995513;28;20112;-87
2022/06/10 01:38:24;;;;;;;11.88;5.43;;;;;;;21.68;89.20;99975.81;5013156;28;20060;-88
2022/06/10 01:40:54;;;;;;;7.60;5.20;;;;;;;21.58;88.95;99969.97;5011820;28;20052;-87
2022/06/10 01:43:22;;;;;;;8.20;5.22;;;;;;;21.67;88.87;99974.16;5013073;28;20502;-87
2022/06/10 01:45:56;;;;;;;8.20;5.32;;;;;;;21.60;88.74;99962.38;5012848;28;20047;-87
2022/06/10 01:48:42;;;;;;;9.32;4.90;;;;;;;21.69;88.60;99966.56;4994946;28;20076;-87
2022/06/10 01:51:23;;;;;;;12.90;5.65;;;;;;;21.76;87.96;99963.84;5013130;28;20415;-87
2022/06/10 01:54:06;;;;;;;9.43;5.05;;;;;;;21.71;88.06;99967.19;4995041;28;20105;-87
2022/06/10 01:56:40;;;;;;;6.90;5.32;;;;;;;21.65;88.48;99954.34;5013264;28;20083;-87
2022/06/10 01:59:18;;;;;;;8.30;5.65;;;;;;;21.77;88.31;99972.88;5012518;28;20408;-86
2022/06/10 02:01:50;;;;;;;7.57;5.15;;;;;;;21.67;87.90;99957.75;5012203;28;20031;-87
2022/06/10 02:04:20;;;;;;;33.97;7.45;;;;;;;21.71;87.89;99958.97;5012578;28;20034;-87
2022/06/10 02:06:54;;;;;;;11.95;6.28;;;;;;;21.78;87.68;99969.06;5012542;28;20064;-87
2022/06/10 02:09:28;;;;;;;13.48;6.63;;;;;;;21.77;87.36;99957.31;5012488;28;20476;-87
2022/06/10 02:12:00;;;;;;;11.52;5.60;;;;;;;21.90;86.93;99970.13;5012841;28;20034;-85
2022/06/10 02:15:08;;;;;;;6.47;5.70;;;;;;;21.85;86.59;99957.06;4994964;28;20038;-87
2022/06/10 02:17:40;;;;;;;11.45;5.55;;;;;;;21.93;86.15;99978.78;4994484;28;20123;-86
2022/06/10 02:20:11;;;;;;;7.43;6.13;;;;;;;21.95;85.99;99986.78;4994656;28;20033;-87
2022/06/10 02:22:45;;;;;;;11.98;6.20;;;;;;;21.82;85.86;99959.41;4994602;28;20127;-86
2022/06/10 02:25:40;;;;;;;17.23;5.05;;;;;;;21.91;85.73;99980.91;5012305;28;20049;-87
2022/06/10 02:28:10;;;;;;;11.35;6.35;;;;;;;21.86;86.15;99977.09;4986266;28;20462;-86
2022/06/10 02:30:49;;;;;;;7.88;5.25;;;;;;;21.83;86.63;99989.31;5012566;28;20511;-86
2022/06/10 02:33:16;;;;;;;13.98;5.47;;;;;;;21.87;86.71;99995.16;5012357;28;20033;-84
2022/06/10 02:36:30;;;;;;;11.98;5.53;;;;;;;21.81;87.04;99985.06;5012913;28;20495;-88
2022/06/10 02:39:20;;;;;;;9.73;5.88;;;;;;;21.80;87.28;99987.00;5009286;28;20088;-86
2022/06/10 02:42:10;;;;;;;11.88;5.18;;;;;;;21.82;87.26;99992.25;5016490;28;20044;-87
2022/06/10 02:44:38;;;;;;;8.43;6.00;;;;;;;21.76;87.74;99998.56;5016339;28;20056;-87
2022/06/10 02:47:11;;;;;;;13.35;5.45;;;;;;;21.70;87.95;99990.16;4998508;28;20504;-86
2022/06/10 02:49:36;;;;;;;8.65;5.25;;;;;;;21.71;88.33;99997.31;5016547;28;20160;-86
2022/06/10 02:52:02;;;;;;;7.90;6.07;;;;;;;21.61;88.86;99990.59;5016144;28;20121;-87
2022/06/10 02:54:34;;;;;;;8.85;5.32;;;;;;;21.79;88.74;100006.34;5015866;28;20560;-86
2022/06/10 03:03:19;;;;;;;27.38;6.55;;;;;;;21.85;88.09;99997.28;5016649;28;20092;-88
2022/06/10 03:06:06;;;;;;;13.00;5.32;;;;;;;21.94;87.97;100026.16;5015848;28;20385;-86
2022/06/10 03:08:38;;;;;;;15.20;7.55;;;;;;;22.01;87.33;100016.91;5017247;28;20022;-87
2022/06/10 03:11:31;;;;;;;8.20;5.10;;;;;;;22.05;87.29;100014.56;5024212;28;20029;-88
2022/06/10 03:14:07;;;;;;;11.00;6.50;;;;;;;21.96;86.97;99999.41;5017199;28;20021;-88
2022/06/10 03:16:56;;;;;;;9.52;5.90;;;;;;;22.00;87.50;100007.00;5017572;28;20026;-90
2022/06/10 03:19:41;;;;;;;10.20;5.43;;;;;;;22.10;87.34;100009.28;5003004;28;20042;-88
2022/06/10 03:22:26;;;;;;;7.40;6.03;;;;;;;22.14;86.83;100024.22;5015464;28;20603;-88
2022/06/10 03:25:30;;;;;;;11.38;5.93;;;;;;;22.08;86.71;100025.06;5024795;28;20036;-87
2022/06/10 03:28:07;;;;;;;9.55;6.47;;;;;;;22.14;86.33;100018.75;4966196;28;20069;-87
2022/06/10 03:30:49;;;;;;;16.65;5.80;;;;;;;22.07;85.81;100004.25;5014581;28;20448;-87
2022/06/10 03:33:29;;;;;;;12.95;6.13;;;;;;;22.08;85.82;100005.91;5015503;28;20026;-88
2022/06/10 03:36:12;;;;;;;9.05;5.93;;;;;;;22.19;86.08;100018.97;5015741;28;20029;-88
2022/06/10 03:38:42;;;;;;;;;;;;;;;22.19;85.99;100017.06;5015961;28;20030;-87
2022/06/10 03:41:17;;;;;;;23.50;6.50;;;;;;;22.10;85.98;100006.56;5015196;28;19943;-88
2022/06/10 03:43:43;;;;;;;19.63;7.28;;;;;;;22.10;86.33;100006.56;4997533;28;20105;-88
2022/06/10 03:46:12;;;;;;;7.95;6.03;;;;;;;22.11;86.36;100011.81;5014910;28;20022;-87
2022/06/10 03:48:40;;;;;;;14.23;7.20;;;;;;;22.12;86.06;100005.28;5014920;28;20021;-86
2022/06/10 03:51:08;;;;;;;16.13;7.60;;;;;;;22.23;86.15;100020.22;5014727;28;20037;-87
2022/06/10 03:53:34;;;;;;;14.00;6.78;;;;;;;22.20;85.87;100013.25;4997757;28;20025;-88
2022/06/10 03:55:59;;;;;;;22.30;6.93;;;;;;;22.19;85.79;99999.78;4997277;28;20033;-87
2022/06/10 03:58:25;;;;;;;28.05;8.27;;;;;;;22.28;85.43;100011.34;5014728;28;20030;-85
2022/06/10 04:00:51;;;;;;;17.42;6.05;;;;;;;22.27;85.30;100013.25;5014511;28;20112;-85
2022/06/10 04:03:17;;;;;;;45.00;7.18;;;;;;;22.34;85.07;100019.56;5015008;28;20078;-86
2022/06/10 04:05:42;;;;;;;21.40;7.70;;;;;;;22.38;84.50;100017.22;5013659;28;20407;-85
2022/06/10 04:08:09;;;;;;;25.75;8.48;;;;;;;22.37;84.50;100027.34;5014830;28;20519;-86
2022/06/10 04:10:34;;;;;;;13.82;6.50;;;;;;;22.30;84.45;100018.28;5014330;28;20108;-87
2022/06/10 04:13:00;;;;;;;13.65;6.68;;;;;;;22.29;84.44;100022.09;5014353;28;20101;-86
2022/06/10 04:15:27;;;;;;;14.23;7.07;;;;;;;22.36;84.19;100033.88;4998272;28;20048;-89
2022/06/10 04:17:55;;;;;;;9.55;5.88;;;;;;;22.30;83.65;100029.25;5015084;28;20022;-85
2022/06/10 04:20:31;;;;;;;12.88;6.65;;;;;;;22.28;83.48;100030.53;5014523;28;20051;-85
2022/06/10 04:22:57;;;;;;;25.92;6.97;;;;;;;22.19;83.52;100028.03;4997315;28;20049;-89
2022/06/10 04:25:23;;;;;;;20.10;6.43;;;;;;;22.29;83.71;100041.28;5001821;28;20025;-90
2022/06/10 04:27:49;;;;;;;11.63;6.53;;;;;;;22.18;83.57;100022.75;5015117;28;20484;-90
2022/06/10 04:30:21;;;;;;;22.70;6.15;;;;;;;22.16;83.42;100024.88;5016043;28;20026;-89
2022/06/10 04:32:47;;;;;;;13.30;6.43;;;;;;;22.20;83.23;100023.38;5015295;28;20030;-89
2022/06/10 04:35:12;;;;;;;16.02;6.05;;;;;;;22.17;83.14;100032.00;5014821;28;20026;-90
2022/06/10 04:37:38;;;;;;;11.90;5.55;;;;;;;22.16;83.00;100035.81;5013656;28;20022;-90
2022/06/10 04:40:04;;;;;;;16.73;5.82;;;;;;;22.04;83.49;100021.09;5014491;28;20081;-90
2022/06/10 04:42:29;;;;;;;11.77;6.63;;;;;;;22.19;84.09;100043.63;4996674;28;20479;-85
2022/06/10 04:44:57;;;;;;;17.20;6.57;;;;;;;22.18;83.90;100036.44;5013929;28;20021;-84
2022/06/10 04:47:23;;;;;;;31.02;7.72;;;;;;;22.08;83.89;100047.84;5013657;28;20022;-84
2022/06/10 04:49:48;;;;;;;24.63;7.60;;;;;;;22.12;84.29;100048.25;5013705;28;20040;-84
2022/06/10 04:52:13;;;;;;;18.05;7.10;;;;;;;22.08;84.30;100041.50;4996773;28;20033;-85
2022/06/10 04:54:39;;;;;;;37.90;8.63;;;;;;;22.17;83.90;100034.75;5015604;28;20029;-89
2022/06/10 05:00:20;;;;;;;30.70;8.75;;;;;;;22.37;83.21;100051.16;4996293;28;20037;-89
2022/06/10 05:02:46;;;;;;;19.42;6.75;;;;;;;22.35;83.00;100047.78;4994701;28;20117;-89
2022/06/10 05:05:12;;;;;;;13.50;7.50;;;;;;;22.31;82.78;100052.84;4995349;28;20089;-89
2022/06/10 05:07:37;;;;;;;18.67;6.32;;;;;;;22.40;83.34;100062.53;4995160;28;20026;-90
2022/06/10 05:10:04;;;;;;;22.25;6.13;;;;;;;22.45;83.36;100064.59;4995223;28;20026;-90
2022/06/10 05:12:30;;;;;;;11.02;7.22;;;;;;;22.51;82.05;100066.47;4995318;28;20027;-90
2022/06/10 05:14:55;;;;;;;17.60;6.80;;;;;;;22.51;81.86;100061.00;4995245;28;20037;-91
2022/06/10 05:17:20;;;;;;;26.20;7.18;;;;;;;22.42;80.97;100054.91;4994942;28;20394;-89
2022/06/10 05:19:47;;;;;;;24.17;7.55;;;;;;;22.61;80.98;100081.44;4994897;28;20033;-89
2022/06/10 05:22:16;;;;;;;13.93;6.32;;;;;;;22.63;80.61;100073.81;4994897;28;20077;-89
2022/06/10 05:24:42;;;;;;;15.23;5.95;;;;;;;22.61;80.72;100070.47;4977285;28;20034;-90
2022/06/10 05:27:08;;;;;;;13.48;6.15;;;;;;;22.65;80.23;100077.25;4995232;28;20026;-89
2022/06/10 05:29:33;;;;;;;11.52;6.00;;;;;;;22.64;79.90;100070.03;4995052;28;20049;-90
2022/06/10 05:31:59;;;;;;;29.38;7.22;;;;;;;22.75;79.70;100072.13;4977943;28;20030;-90
2022/06/10 05:37:09;;;;;;;22.35;5.22;;;;;;;22.92;78.81;100088.94;4995567;28;20041;-90
2022/06/10 05:39:35;;;;;;;25.30;6.85;;;;;;;23.00;78.27;100091.44;4994341;28;20023;-90
2022/06/10 05:42:06;;;;;;;18.17;6.53;;;;;;;23.00;77.56;100091.44;4995294;28;20041;-90
2022/06/10 05:44:51;;;;;;;18.08;6.40;;;;;;;23.09;76.65;100092.00;4994871;28;20034;-88
2022/06/10 05:47:20;;;;;;;14.45;5.43;;;;;;;23.04;76.70;100094.56;4994711;28;20061;-88
2022/06/10 05:49:51;;;;;;;9.23;5.45;;;;;;;23.07;76.52;100097.72;4977434;28;20560;-90
2022/06/10 05:52:19;;;;;;;45.42;6.65;;;;;;;23.13;76.61;100101.50;4995604;28;20034;-89
2022/06/10 05:54:46;;;;;;;19.08;4.95;;;;;;;23.16;76.25;100104.66;4996650;28;20087;-90
2022/06/10 05:57:13;;;;;;;31.67;5.40;;;;;;;23.12;75.77;100103.41;4979400;28;20029;-89
2022/06/10 05:59:39;;;;;;;7.35;4.53;;;;;;;23.14;76.32;100108.69;4996733;28;20113;-92
2022/06/10 06:02:11;;;;;;;35.30;7.68;;;;;;;23.15;75.75;100110.34;4994336;28;20152;-91
2022/06/10 06:04:37;;;;;;;7.70;5.03;;;;;;;23.11;75.56;100112.69;4993974;28;20534;-89
2022/06/10 06:07:03;;;;;;;9.13;5.05;;;;;;;23.04;75.37;100102.81;4994157;28;20038;-92
2022/06/10 06:09:29;;;;;;;11.02;4.80;;;;;;;23.08;75.88;100121.38;4976207;28;20049;-90
2022/06/10 06:11:56;;;;;;;11.75;4.22;;;;;;;23.16;76.48;100112.88;4977124;28;20041;-89
2022/06/10 06:14:25;;;;;;;17.40;4.47;;;;;;;23.23;76.81;100110.97;4994724;28;20030;-90
2022/06/10 06:16:56;;;;;;;12.85;5.45;;;;;;;23.28;76.41;100104.78;4978085;28;20062;-89
2022/06/10 06:19:23;;;;;;;25.50;6.15;;;;;;;23.29;75.66;100117.47;4977069;28;20069;-90
2022/06/10 06:21:49;;;;;;;18.52;4.60;;;;;;;23.33;76.06;100120.63;4976851;28;20089;-89
2022/06/10 06:24:15;;;;;;;14.20;4.20;;;;;;;23.40;75.78;100108.53;4976755;28;20026;-90
2022/06/10 06:26:40;;;;;;;9.75;4.95;;;;;;;23.42;75.38;100125.66;4994693;28;20455;-90
2022/06/10 06:29:06;;;;;;;11.88;4.55;;;;;;;23.49;75.60;100123.69;4979533;28;20076;-90
2022/06/10 06:31:32;;;;;;;13.60;3.95;;;;;;;23.48;74.91;100122.03;4978918;28;20489;-91
2022/06/10 06:33:57;;;;;;;27.45;5.72;;;;;;;23.51;73.77;100121.59;4996667;28;20030;-90
2022/06/10 06:36:25;;;;;;;21.40;5.13;;;;;;;23.38;71.63;100116.13;4977993;28;20031;-90
2022/06/10 06:38:51;;;;;;;10.70;4.65;;;;;;;23.43;72.20;100124.56;4994561;28;20092;-90
2022/06/10 06:41:18;;;;;;;18.88;5.13;;;;;;;23.28;72.88;100113.88;4976402;28;20034;-91
2022/06/10 06:43:44;;;;;;;13.55;5.28;;;;;;;23.20;73.62;100125.13;4976421;28;20057;-90
2022/06/10 06:46:12;;;;;;;23.45;4.63;;;;;;;23.27;74.33;100138.81;4992518;28;20085;-88
2022/06/10 06:48:38;;;;;;;14.48;4.50;;;;;;;23.31;74.84;100135.38;4976829;28;20110;-90
2022/06/10 06:51:04;;;;;;;17.15;5.15;;;;;;;23.36;75.00;100132.00;4993716;28;20054;-89
2022/06/10 06:53:29;;;;;;;22.00;5.55;;;;;;;23.37;74.97;100149.28;4994121;28;20038;-89
2022/06/10 06:55:56;;;;;;;23.40;6.53;;;;;;;23.27;74.63;100147.03;4975422;28;20195;-89
2022/06/10 06:58:22;;;;;;;26.58;6.35;;;;;;;23.20;74.50;100135.25;4994266;28;20026;-88
2022/06/10 07:00:48;;;;;;;32.72;6.35;;;;;;;23.12;73.99;100136.31;4997333;28;20033;-91
2022/06/10 07:03:13;;;;;;;11.85;4.07;;;;;;;23.17;74.15;100141.16;4998815;28;20030;-92
2022/06/10 07:05:39;;;;;;;19.55;4.35;;;;;;;23.18;74.23;100151.06;4999586;28;20030;-90
2022/06/10 07:08:05;;;;;;;51.53;5.15;;;;;;;23.19;74.26;100139.03;4998050;28;20064;-90
2022/06/10 07:10:30;;;;;;;15.73;4.30;;;;;;;23.35;74.85;100149.50;5006801;28;20034;-91
2022/06/10 07:12:56;;;;;;;16.15;3.92;;;;;;;23.32;74.13;100144.47;5007398;28;20041;-89
2022/06/10 07:15:22;;;;;;;26.75;9.82;;;;;;;23.36;74.03;100148.47;4991803;28;20046;-90
2022/06/10 07:17:48;;;;;;;34.30;6.68;;;;;;;23.50;73.11;100130.03;5009107;28;20026;-90
2022/06/10 07:20:29;;;;;;;20.77;5.45;;;;;;;23.58;72.54;100149.81;4983642;28;20432;-89
2022/06/10 07:22:55;;;;;;;19.15;5.60;;;;;;;23.47;73.17;100153.28;4978828;28;20097;-90
2022/06/10 07:25:22;;;;;;;15.52;4.50;;;;;;;23.57;72.85;100145.41;4995139;28;20081;-90
2022/06/10 07:27:48;;;;;;;13.13;4.03;;;;;;;23.57;72.02;100141.81;4997436;28;20084;-91
2022/06/10 07:30:16;;;;;;;12.38;4.22;;;;;;;23.45;70.39;100144.44;4997410;28;20045;-90
2022/06/10 07:32:43;;;;;;;16.58;4.22;;;;;;;23.50;70.41;100158.34;4996949;28;20030;-91
2022/06/10 07:35:10;;;;;;;18.02;5.35;;;;;;;23.25;71.11;100155.47;4997548;28;20030;-91
2022/06/10 07:37:35;;;;;;;10.18;3.40;;;;;;;23.13;71.30;100146.25;4997995;28;20030;-89
2022/06/10 07:40:01;;;;;;;10.63;4.50;;;;;;;23.25;72.33;100173.84;4980208;28;20053;-90
2022/06/10 07:42:26;;;;;;;21.92;4.30;;;;;;;23.24;72.96;100163.91;4979168;28;20034;-90
2022/06/10 07:44:54;;;;;;;19.88;4.55;;;;;;;23.24;73.19;100166.66;4979909;28;20030;-90
2022/06/10 07:47:20;;;;;;;15.73;4.47;;;;;;;23.29;73.36;100172.34;4997037;28;20030;-89
2022/06/10 07:49:45;;;;;;;11.20;4.07;;;;;;;23.20;74.04;100176.41;4978822;28;20034;-89
2022/06/10 07:52:12;;;;;;;9.88;4.03;;;;;;;23.29;74.27;100178.69;4978788;28;20134;-88
2022/06/10 07:54:40;;;;;;;17.23;4.50;;;;;;;23.29;74.67;100180.56;4996276;28;20030;-90
2022/06/10 07:57:08;;;;;;;65.63;8.10;;;;;;;23.41;74.18;100181.59;4978678;28;20034;-90
2022/06/10 07:59:34;;;;;;;23.65;4.72;;;;;;;23.47;73.79;100186.22;4996969;28;20035;-88
2022/06/10 08:02:00;;;;;;;13.85;4.45;;;;;;;23.47;73.17;100183.47;4997105;28;20026;-90
2022/06/10 08:04:25;;;;;;;12.98;3.80;;;;;;;23.54;72.51;100183.44;4996235;28;20037;-90
2022/06/10 08:06:51;;;;;;;21.92;4.00;;;;;;;23.69;72.69;100184.84;4996366;28;20459;-90
2022/06/10 08:09:20;;;;;;;8.25;3.80;;;;;;;23.73;73.10;100188.81;4979315;28;20050;-90
2022/06/10 08:11:47;;;;;;;10.65;3.13;;;;;;;23.84;72.95;100182.63;4979362;28;20121;-90
2022/06/10 08:14:13;;;;;;;16.95;4.00;;;;;;;23.98;73.50;100188.00;4981302;28;20129;-89
2022/06/10 08:16:40;;;;;;;14.88;5.30;;;;;;;24.05;73.51;100199.78;5006363;28;20034;-90
2022/06/10 08:19:06;;;;;;;6.78;3.10;;;;;;;24.02;71.73;100195.59;4982284;28;20033;-90
2022/06/10 08:24:17;;;;;;;16.10;3.72;;;;;;;24.07;71.81;100192.16;4997896;28;20416;-88
2022/06/10 08:26:43;;;;;;;12.00;4.63;;;;;;;24.18;71.19;100208.84;4981576;28;20041;-89
2022/06/10 08:29:09;;;;;;;11.02;3.47;;;;;;;23.97;70.27;100194.59;4998199;28;20022;-88
2022/06/10 08:31:34;;;;;;;8.75;3.33;;;;;;;23.91;70.05;100195.47;4999110;28;20030;-89
2022/06/10 08:34:02;;;;;;;9.98;3.17;;;;;;;23.84;70.10;100203.75;4979972;28;20129;-89
2022/06/10 08:36:28;;;;;;;9.27;3.00;;;;;;;23.83;70.94;100219.38;4979933;28;20037;-90
2022/06/10 08:38:54;;;;;;;17.65;3.17;;;;;;;23.71;71.78;100204.66;4997104;28;20061;-90
2022/06/10 08:41:32;;;;;;;14.00;4.88;;;;;;;23.71;72.74;100220.31;4981515;28;20117;-89
2022/06/10 08:44:03;;;;;;;7.20;3.47;;;;;;;23.56;72.94;100223.34;4998055;28;20026;-90
2022/06/10 08:46:51;;;;;;;12.77;4.10;;;;;;;23.58;73.08;100232.19;4980538;28;20026;-89
2022/06/10 08:49:37;;;;;;;32.10;4.72;;;;;;;23.58;73.41;100220.34;4977659;28;20420;-90
2022/06/10 08:52:30;;;;;;;14.40;3.85;;;;;;;23.65;72.95;100229.41;4977507;28;20038;-90
2022/06/10 08:55:30;;;;;;;7.55;3.80;;;;;;;23.54;73.49;100235.59;4994598;28;20038;-90
2022/06/10 08:58:00;;;;;;;18.20;8.05;;;;;;;23.41;73.95;100220.03;4994447;28;20040;-89
2022/06/10 09:00:36;;;;;;;15.27;4.13;;;;;;;23.28;73.68;100220.03;4978268;28;20555;-89
2022/06/10 09:03:10;;;;;;;8.40;3.47;;;;;;;23.31;74.09;100227.84;4976741;28;20070;-90
2022/06/10 09:06:05;;;;;;;12.20;4.28;;;;;;;23.25;74.75;100236.94;4994427;28;20038;-90
2022/06/10 09:08:41;;;;;;;6.82;4.00;;;;;;;23.19;74.62;100221.34;4993398;28;20042;-89
2022/06/10 09:11:18;;;;;;;11.38;3.75;;;;;;;23.10;74.96;100231.72;4994680;28;20054;-89
2022/06/10 09:14:09;;;;;;;7.70;3.80;;;;;;;23.10;74.85;100228.13;4993979;28;20057;-90
2022/06/10 09:16:35;;;;;;;12.82;3.83;;;;;;;23.03;75.33;100228.16;4970560;28;20044;-90
2022/06/10 09:19:19;;;;;;;11.85;4.07;;;;;;;22.95;76.02;100227.53;4977364;28;20026;-90
2022/06/10 09:22:19;;;;;;;9.82;3.33;;;;;;;22.83;76.48;100232.84;4994566;28;20073;-90
2022/06/10 09:24:55;;;;;;;16.98;6.22;;;;;;;22.70;76.70;100236.44;4994646;28;20404;-88
2022/06/10 09:27:33;;;;;;;23.90;5.10;;;;;;;22.53;76.91;100229.69;4995479;28;20109;-91
2022/06/10 09:30:03;;;;;;;11.73;3.88;;;;;;;22.61;77.17;100240.44;4977171;28;20109;-90
2022/06/10 09:32:57;;;;;;;16.52;3.30;;;;;;;22.64;77.42;100231.78;4977891;28;20058;-90
2022/06/10 09:35:53;;;;;;;8.65;4.15;;;;;;;22.55;78.04;100235.81;4978031;28;20026;-90
2022/06/10 09:38:33;;;;;;;17.95;5.38;;;;;;;22.54;79.67;100242.31;4978195;28;20031;-90
2022/06/10 09:41:40;;;;;;;14.40;5.30;;;;;;;22.48;81.51;100243.16;4995277;28;20547;-89
2022/06/10 09:44:18;;;;;;;25.63;7.22;;;;;;;22.28;83.57;100244.22;4989851;28;20049;-90
2022/06/10 09:47:13;;;;;;;23.10;6.97;;;;;;;21.88;87.09;100243.28;4979019;28;20108;-91
2022/06/10 09:50:17;;;;;;;15.02;7.65;;;;;;;21.70;88.86;100257.56;4985144;28;20026;-95
2022/06/10 09:53:02;;;;;;;14.40;6.35;;;;;;;21.38;91.57;100256.38;4929719;29;20570;-93
2022/06/10 09:56:04;;;;;;;14.98;6.75;;;;;;;21.15;90.71;100266.81;4924984;29;20079;-93
2022/06/10 09:58:51;;;;;;;11.45;6.60;;;;;;;20.97;92.15;100266.44;4970827;28;20038;-91
2022/06/10 10:01:25;;;;;;;17.92;9.25;;;;;;;20.95;94.24;100271.25;4984667;28;20032;-91
2022/06/10 10:04:20;;;;;;;11.48;8.82;;;;;;;20.98;96.13;100271.69;4980990;28;20030;-94
2022/06/10 10:06:55;;;;;;;16.27;9.65;;;;;;;20.88;97.60;100267.66;4982908;28;20022;-93
2022/06/10 10:09:40;;;;;;;10.05;7.43;;;;;;;20.82;97.91;100271.19;4979765;28;20101;-91
2022/06/10 10:12:08;;;;;;;22.23;8.93;;;;;;;20.86;97.85;100275.19;4979554;28;20108;-92
2022/06/10 10:14:45;;;;;;;8.75;7.45;;;;;;;20.95;98.95;100274.84;4997026;28;20034;-91
2022/06/10 10:17:17;;;;;;;18.90;10.25;;;;;;;21.10;99.07;100280.22;4999352;28;20038;-92
2022/06/10 10:20:02;;;;;;;14.15;7.60;;;;;;;21.37;99.13;100265.66;4979495;28;20022;-93
2022/06/10 10:22:45;;;;;;;12.68;7.07;;;;;;;21.73;98.65;100272.75;4981024;28;20042;-91
2022/06/10 10:25:18;;;;;;;11.50;5.82;;;;;;;21.90;97.91;100276.81;4995477;28;20117;-90
2022/06/10 10:27:44;;;;;;;;;;;;;;;22.07;94.82;100283.63;4978401;28;20484;-91
2022/06/10 10:30:43;;;;;;;8.18;5.68;;;;;;;22.30;94.43;100275.00;4994786;28;20287;-91
2022/06/10 10:33:13;;;;;;;11.88;4.80;;;;;;;22.37;92.12;100265.75;4994527;28;20026;-91
2022/06/10 10:35:52;;;;;;;8.75;4.45;;;;;;;22.62;92.22;100272.28;4976772;28;20489;-91
2022/06/10 10:38:36;;;;;;;9.05;4.80;;;;;;;22.83;91.35;100254.78;4976611;28;20030;-92
2022/06/10 10:41:34;;;;;;;6.30;4.10;;;;;;;23.11;90.69;100274.56;4977281;28;20033;-90
2022/06/10 10:44:05;;;;;;;8.65;5.20;;;;;;;23.23;89.85;100277.50;4978477;28;20030;-91
2022/06/10 10:47:14;;;;;;;12.05;10.60;;;;;;;23.17;87.61;100267.38;4977697;28;20408;-92
2022/06/10 10:50:06;;;;;;;8.85;4.20;;;;;;;23.35;89.00;100275.75;4959199;28;20038;-91
2022/06/10 10:52:35;;;;;;;11.52;4.75;;;;;;;23.51;86.10;100266.25;4977193;28;20560;-91
2022/06/10 10:55:09;;;;;;;13.93;4.65;;;;;;;23.47;83.77;100260.34;4976862;28;20121;-91
2022/06/10 10:57:43;;;;;;;7.82;4.00;;;;;;;23.42;83.71;100259.31;4994455;28;20030;-91
2022/06/10 11:00:11;;;;;;;18.05;4.72;;;;;;;23.40;82.09;100259.50;4979153;28;20033;-91
2022/06/10 11:02:56;;;;;;;11.45;4.80;;;;;;;23.44;83.94;100258.03;4999343;28;20030;-91
2022/06/10 11:05:37;;;;;;;7.72;4.43;;;;;;;23.62;83.87;100249.06;4998318;28;20098;-91
2022/06/10 11:08:05;;;;;;;12.55;4.32;;;;;;;23.83;83.24;100255.09;4998169;28;20022;-91
2022/06/10 11:10:34;;;;;;;11.70;4.05;;;;;;;23.88;82.06;100248.94;4997858;28;20538;-91
2022/06/10 11:13:07;;;;;;;7.35;3.78;;;;;;;23.83;78.96;100235.88;4980969;28;20526;-91
2022/06/10 11:15:34;;;;;;;11.73;3.95;;;;;;;23.72;78.58;100233.81;4980739;28;20480;-92
2022/06/10 11:18:01;;;;;;;7.28;3.97;;;;;;;23.57;77.58;100233.28;4997969;28;20044;-91
2022/06/10 11:20:33;;;;;;;12.52;3.72;;;;;;;23.49;78.27;100241.75;4980259;28;20511;-91
2022/06/10 11:23:11;;;;;;;;;;;;;;;23.31;77.12;100249.81;4998543;28;20057;-90
2022/06/10 11:25:37;;;;;;;9.70;4.15;;;;;;;23.05;78.08;100225.22;4979291;28;20012;-91
2022/06/10 11:28:17;;;;;;;12.35;5.18;;;;;;;23.12;78.99;100243.31;4980230;28;20054;-92
2022/06/10 11:30:48;;;;;;;13.07;4.30;;;;;;;23.14;79.30;100241.22;4980019;28;20459;-89
2022/06/10 11:33:29;;;;;;;7.18;4.28;;;;;;;23.17;79.16;100239.94;4979660;28;20026;-90
2022/06/10 11:36:11;;;;;;;27.85;4.28;;;;;;;23.35;78.75;100245.56;4979397;28;20082;-89
2022/06/10 11:38:48;;;;;;;12.93;3.83;;;;;;;23.42;77.70;100240.94;4979178;28;20037;-91
2022/06/10 11:41:26;;;;;;;19.92;3.83;;;;;;;23.58;77.05;100248.66;4996570;28;20030;-92
2022/06/10 11:43:59;;;;;;;21.35;5.75;;;;;;;23.68;75.15;100243.56;4980268;28;20030;-92
2022/06/10 11:46:34;;;;;;;20.58;5.32;;;;;;;23.72;74.80;100239.31;4981142;28;20596;-94
2022/06/10 11:49:08;;;;;;;15.65;4.55;;;;;;;23.78;74.75;100241.19;4981649;28;20030;-95
2022/06/10 11:51:42;;;;;;;53.45;6.60;;;;;;;23.81;75.95;100243.50;4980982;28;20038;-95
2022/06/10 11:54:26;;;;;;;39.65;6.43;;;;;;;23.82;73.49;100260.81;4981349;28;20034;-95
2022/06/10 11:59:59;;;;;;;44.38;8.15;;;;;;;23.71;72.37;100262.34;4998370;28;20041;-94
2022/06/10 12:02:34;;;;;;;31.73;6.15;;;;;;;23.48;72.24;100242.81;4983757;28;20581;-94
2022/06/10 12:05:09;;;;;;;14.18;4.05;;;;;;;23.48;73.57;100256.53;4980076;28;20026;-94
2022/06/10 12:07:43;;;;;;;26.17;4.47;;;;;;;23.38;75.04;100250.63;4980444;28;20121;-93
2022/06/10 12:10:19;;;;;;;21.73;4.60;;;;;;;23.38;74.83;100250.63;4980389;28;20038;-93